Burgos, España

5:17 AM CET en Marzo 04, 2015 (GMT +0100)
Foronda | Change Station
CLOSE
Current Station
Aeropuerto
Location: Vitoria,
Altura: 1673 ft
Estaciones meteorológicas cercanas

Alt 1673 ft 42.88 °N, 2.72 °W | Updated 17 minutes ago

Mostly Cloudy
Muy nublado
45 ° F
Sensación térmica 41 ° F
N
7
Viento Variable Viento desde Norte

Hoy
Alta -- | Baja -- ° F
--% Posibilidad de precipitaciones
Ayer
Alta -- | Baja -- ° F
Precip. -- pul
7:45 AM 7:07 PM
Gibosa creciente, 98% visible
Presión 30.42 pul
Visibilidad 6.2 Millas
Nubes Nubes dispersas 3000 ft
Muy nublado 4500 ft
Vientos helados 41 ° F
Punto de rocío 41 ° F
Humedad 87%
Precipitaciones 0.00 pul
Espesor de la nieve No disponible.
UV 0 de una escala de 12
Polen No disponible.
Calidad del aire No disponible.
Flu Activity No disponible.
METAR LEVT 040400Z 35006KT 330V040 9999 SCT030 BKN045 07/05 Q1030

More Conditions Fewer Conditions

Presión 30.42 pul
Visibilidad 6.2 Millas
Nubes Nubes dispersas 3000 ft
Muy nublado 4500 ft
Vientos helados 41 ° F
Punto de rocío 41 ° F
Humedad 87%
Precipitaciones 0.00 pul
Espesor de la nieve No disponible.
UV 0 de una escala de 12
Polen No disponible.
Calidad del aire No disponible.
Flu Activity No disponible.
METAR LEVT 040400Z 35006KT 330V040 9999 SCT030 BKN045 07/05 Q1030

More Conditions Fewer Conditions

10-Day Weather Forecast

Almanac

Astronomía

Mar. 04, 2015 Salida Puesta
Hora real
Crepúsculo civil
Crepúsculo náutico
Crepúsculo astronómico
Luna
Horas de luz
Horas de luz
Tomorrow will be .
, % of the Moon is Illuminated

Extremos de hoy

Máximos del país Bajas del país

Community

WunderPhotos

Upload Photos

1,802,383 ¡fotos cargadas!

WunderBlogs® & News

Nearby

Calidad del aire

  Calidad del aire Índice AQ Contaminante
Not available.

Grosos de nieve

Estación Profundido Altura

Actividad de terremotos

Ciudad Distance Mag. Tiempo y dato
Magnitud mínima muestra es 2,5.

Temperaturas de aguas costeras

Lugar Temperatura

Estaciones meteorológicas cercanas